createdAt,value
2023-02-02T00:01:36.203Z,6.90
2023-02-02T00:04:04.530Z,7.00
2023-02-02T00:06:34.320Z,7.00
2023-02-02T00:09:03.820Z,7.10
2023-02-02T00:11:31.946Z,7.10
2023-02-02T00:14:00.880Z,7.10
2023-02-02T00:16:37.918Z,7.00
2023-02-02T00:19:08.291Z,7.00
2023-02-02T00:21:38.803Z,7.00
2023-02-02T00:24:08.172Z,7.10
2023-02-02T00:26:37.077Z,7.10
2023-02-02T00:29:06.152Z,7.00
2023-02-02T00:31:34.669Z,6.90
2023-02-02T00:34:02.760Z,6.80
2023-02-02T00:36:30.759Z,6.90
2023-02-02T00:39:00.203Z,6.80
2023-02-02T00:41:28.250Z,6.80
2023-02-02T00:44:13.568Z,6.90
2023-02-02T00:46:42.653Z,6.80
2023-02-02T00:49:11.098Z,6.90
2023-02-02T00:51:39.320Z,6.90
2023-02-02T00:54:08.841Z,6.90
2023-02-02T00:56:36.858Z,6.90
2023-02-02T00:59:04.921Z,6.90
2023-02-02T01:01:33.052Z,6.80
2023-02-02T01:04:01.569Z,6.70
2023-02-02T01:06:29.610Z,6.70
2023-02-02T01:08:57.605Z,6.70
2023-02-02T01:11:27.676Z,6.70
2023-02-02T01:13:55.730Z,6.70
2023-02-02T01:16:24.887Z,6.70
2023-02-02T01:18:53.295Z,6.70
2023-02-02T01:21:21.859Z,6.60
2023-02-02T01:23:50.179Z,6.60
2023-02-02T01:26:18.594Z,6.60
2023-02-02T01:28:48.360Z,6.50
2023-02-02T01:31:19.966Z,6.50
2023-02-02T01:33:49.490Z,6.40
2023-02-02T01:36:25.702Z,6.30
2023-02-02T01:38:53.757Z,6.30
2023-02-02T01:41:26.503Z,6.30
2023-02-02T01:43:58.571Z,6.40
2023-02-02T01:46:31.809Z,6.40
2023-02-02T01:49:04.939Z,6.40
2023-02-02T01:51:41.969Z,6.50
2023-02-02T01:54:14.832Z,6.40
2023-02-02T01:56:48.020Z,6.40
2023-02-02T01:59:18.999Z,6.50
2023-02-02T02:01:49.113Z,6.60
2023-02-02T02:04:18.851Z,6.60
2023-02-02T02:06:48.160Z,6.70
2023-02-02T02:09:16.690Z,6.70
2023-02-02T02:11:44.790Z,6.70
2023-02-02T02:14:32.543Z,6.70
2023-02-02T02:17:23.323Z,6.80
2023-02-02T02:20:43.228Z,6.70
2023-02-02T02:24:28.236Z,6.80
2023-02-02T02:27:15.408Z,6.90
2023-02-02T02:30:07.234Z,6.80
2023-02-02T02:32:42.933Z,6.80
2023-02-02T02:35:19.422Z,6.80
2023-02-02T02:37:51.352Z,6.90
2023-02-02T02:40:26.865Z,6.90
2023-02-02T02:43:00.111Z,6.90
2023-02-02T02:45:29.734Z,6.90
2023-02-02T02:47:59.621Z,6.90
2023-02-02T02:50:28.361Z,6.90
2023-02-02T02:53:05.308Z,6.80
2023-02-02T02:55:43.832Z,6.80
2023-02-02T02:58:16.498Z,6.80
2023-02-02T03:00:51.802Z,6.80
2023-02-02T03:03:34.824Z,6.80
2023-02-02T03:06:09.823Z,6.80
2023-02-02T03:08:41.389Z,6.90
2023-02-02T03:11:12.199Z,6.80
2023-02-02T03:13:41.553Z,6.80
2023-02-02T03:16:10.418Z,6.90
2023-02-02T03:18:40.438Z,6.90
2023-02-02T03:21:12.183Z,6.90
2023-02-02T03:23:40.514Z,7.10
2023-02-02T03:26:08.606Z,7.00
2023-02-02T03:28:37.207Z,7.00
2023-02-02T03:31:06.048Z,7.00
2023-02-02T03:33:36.485Z,7.00
2023-02-02T03:36:06.565Z,7.00
2023-02-02T03:38:35.083Z,7.00
2023-02-02T03:41:03.124Z,7.00
2023-02-02T03:43:31.168Z,7.00
2023-02-02T03:46:00.096Z,7.00
2023-02-02T03:48:28.806Z,7.10
2023-02-02T03:50:57.479Z,7.00
2023-02-02T03:53:26.890Z,6.90
2023-02-02T03:55:54.970Z,6.90
2023-02-02T03:58:23.095Z,6.90
2023-02-02T04:00:51.169Z,6.90
2023-02-02T04:03:19.204Z,6.90
2023-02-02T04:05:51.101Z,6.90
2023-02-02T04:08:19.415Z,6.80
2023-02-02T04:10:48.878Z,6.80
2023-02-02T04:13:16.916Z,6.80
2023-02-02T04:15:45.090Z,6.90
2023-02-02T04:18:13.509Z,6.90
2023-02-02T04:20:41.611Z,6.90
2023-02-02T04:23:09.583Z,7.00
2023-02-02T04:25:37.600Z,6.90
2023-02-02T04:28:07.142Z,6.90
2023-02-02T04:30:35.304Z,6.90
2023-02-02T04:33:03.400Z,6.90
2023-02-02T04:35:31.515Z,6.90
2023-02-02T04:37:59.590Z,6.90
2023-02-02T04:40:27.830Z,6.90
2023-02-02T04:42:55.827Z,6.90
2023-02-02T04:45:25.697Z,6.80
2023-02-02T04:47:54.015Z,6.80
2023-02-02T04:50:22.152Z,6.80
2023-02-02T04:52:50.193Z,6.90
2023-02-02T04:55:18.384Z,6.90
2023-02-02T04:57:46.629Z,7.00
2023-02-02T05:00:15.669Z,6.90
2023-02-02T05:02:45.369Z,6.90
2023-02-02T05:05:14.996Z,6.90
2023-02-02T05:07:43.110Z,7.00
2023-02-02T05:10:12.502Z,7.00
2023-02-02T05:12:40.574Z,7.00
2023-02-02T05:15:09.753Z,7.10
2023-02-02T05:17:37.917Z,7.10
2023-02-02T05:20:08.173Z,7.10
2023-02-02T05:22:36.301Z,7.10
2023-02-02T05:25:04.572Z,7.00
2023-02-02T05:27:32.720Z,6.90
2023-02-02T05:30:00.896Z,7.00
2023-02-02T05:32:29.819Z,7.00
2023-02-02T05:34:57.876Z,7.10
2023-02-02T05:37:27.461Z,7.10
2023-02-02T05:39:55.573Z,7.00
2023-02-02T05:42:23.601Z,7.00
2023-02-02T05:44:51.668Z,7.00
2023-02-02T05:47:19.893Z,7.00
2023-02-02T05:49:48.245Z,7.10
2023-02-02T05:52:22.688Z,7.10
2023-02-02T05:54:52.205Z,7.10
2023-02-02T05:57:20.336Z,7.10
2023-02-02T05:59:48.326Z,7.10
2023-02-02T06:02:16.356Z,7.10
2023-02-02T06:04:44.443Z,7.20
2023-02-02T06:07:13.229Z,7.30
2023-02-02T06:09:41.280Z,7.30
2023-02-02T06:12:10.732Z,7.30
2023-02-02T06:14:38.848Z,7.20
2023-02-02T06:17:07.689Z,7.20
2023-02-02T06:19:35.682Z,7.20
2023-02-02T06:22:03.730Z,7.20
2023-02-02T06:24:31.862Z,7.20
2023-02-02T06:26:59.958Z,7.20
2023-02-02T06:29:29.469Z,7.20
2023-02-02T06:31:57.566Z,7.20
2023-02-02T06:34:25.619Z,7.10
2023-02-02T06:36:53.594Z,7.20
2023-02-02T06:39:21.706Z,7.30
2023-02-02T06:41:52.039Z,7.10
2023-02-02T06:44:21.105Z,7.00
2023-02-02T06:46:50.546Z,7.10
2023-02-02T06:49:18.627Z,7.10
2023-02-02T06:51:48.192Z,7.00
2023-02-02T06:54:16.472Z,7.10
2023-02-02T06:56:44.526Z,7.10
2023-02-02T06:59:12.622Z,7.10
2023-02-02T07:01:40.740Z,7.20
2023-02-02T07:04:10.158Z,7.20
2023-02-02T07:06:39.611Z,7.20
2023-02-02T07:09:07.692Z,7.20
2023-02-02T07:11:41.969Z,7.10
2023-02-02T07:14:12.255Z,7.00
2023-02-02T07:16:40.330Z,7.10
2023-02-02T07:19:11.309Z,7.00
2023-02-02T07:21:39.586Z,7.10
2023-02-02T07:24:09.022Z,7.20
2023-02-02T07:26:37.529Z,7.00
2023-02-02T07:29:06.560Z,7.00
2023-02-02T07:31:36.575Z,7.00
2023-02-02T07:34:05.488Z,7.00
2023-02-02T07:36:34.965Z,7.10
2023-02-02T07:39:04.670Z,7.20
2023-02-02T07:41:33.284Z,7.20
2023-02-02T07:44:01.779Z,7.30
2023-02-02T07:46:30.059Z,7.30
2023-02-02T07:48:58.793Z,7.20
2023-02-02T07:51:27.546Z,7.20
2023-02-02T07:53:59.391Z,7.10
2023-02-02T07:56:28.816Z,7.10
2023-02-02T07:58:57.860Z,7.10
2023-02-02T08:01:27.016Z,7.10
2023-02-02T08:03:56.235Z,7.20
2023-02-02T08:06:26.456Z,7.20
2023-02-02T08:08:55.929Z,7.30
2023-02-02T08:11:25.922Z,7.30
2023-02-02T08:13:55.677Z,7.20
2023-02-02T08:16:24.633Z,7.10
2023-02-02T08:18:53.232Z,7.10
2023-02-02T08:21:21.346Z,7.10
2023-02-02T08:23:50.122Z,7.10
2023-02-02T08:26:22.134Z,7.20
2023-02-02T08:28:54.134Z,7.10
2023-02-02T08:31:24.563Z,7.20
2023-02-02T08:33:54.003Z,7.20
2023-02-02T08:36:24.356Z,7.20
2023-02-02T08:38:52.899Z,7.20
2023-02-02T08:41:24.503Z,7.20
2023-02-02T08:43:53.002Z,7.20
2023-02-02T08:46:22.437Z,7.30
2023-02-02T08:48:50.758Z,7.20
2023-02-02T08:51:20.386Z,7.30
2023-02-02T08:53:49.105Z,7.20
2023-02-02T08:56:19.710Z,7.20
2023-02-02T08:58:51.022Z,7.20
2023-02-02T09:01:21.256Z,7.10
2023-02-02T09:03:49.638Z,7.10
2023-02-02T09:06:20.696Z,7.00
2023-02-02T09:08:49.262Z,7.00
2023-02-02T09:11:19.004Z,7.10
2023-02-02T09:13:50.125Z,7.10
2023-02-02T09:16:20.101Z,7.00
2023-02-02T09:18:48.181Z,7.10
2023-02-02T09:21:17.898Z,7.00
2023-02-02T09:23:47.720Z,7.00
2023-02-02T09:26:18.012Z,7.00
2023-02-02T09:28:49.949Z,7.10
2023-02-02T09:31:18.754Z,7.00
2023-02-02T09:33:47.017Z,7.00
2023-02-02T09:36:16.422Z,7.10
2023-02-02T09:38:44.972Z,7.10
2023-02-02T09:41:43.592Z,7.10
2023-02-02T09:44:20.618Z,7.00
2023-02-02T09:46:58.198Z,7.10
2023-02-02T09:49:32.673Z,7.10
2023-02-02T09:52:05.119Z,7.10
2023-02-02T09:54:39.579Z,7.10
2023-02-02T09:57:14.899Z,7.10
2023-02-02T09:59:45.438Z,7.00
2023-02-02T10:02:19.636Z,7.00
2023-02-02T10:04:52.293Z,7.10
2023-02-02T10:07:22.531Z,7.10
2023-02-02T10:09:57.251Z,7.30
2023-02-02T10:12:34.171Z,7.30
2023-02-02T10:15:13.469Z,7.10
2023-02-02T10:17:47.832Z,7.10
2023-02-02T10:20:38.197Z,7.00
2023-02-02T10:23:13.913Z,7.00
2023-02-02T10:25:50.486Z,7.00
2023-02-02T10:28:44.227Z,7.10
2023-02-02T10:31:23.515Z,7.10
2023-02-02T10:34:03.443Z,7.10
2023-02-02T10:36:42.840Z,7.00
2023-02-02T10:39:20.938Z,7.00
2023-02-02T10:42:00.316Z,7.00
2023-02-02T10:44:38.368Z,7.00
2023-02-02T10:47:14.025Z,7.00
2023-02-02T10:49:42.560Z,7.00
2023-02-02T10:52:17.726Z,7.10
2023-02-02T10:54:57.761Z,7.10
2023-02-02T10:57:35.502Z,7.20
2023-02-02T11:00:11.504Z,7.20
2023-02-02T11:02:40.941Z,7.10
2023-02-02T11:05:35.443Z,7.10
2023-02-02T11:08:03.682Z,7.10
2023-02-02T11:10:33.875Z,7.10
2023-02-02T11:13:03.707Z,7.20
2023-02-02T11:15:32.459Z,7.30
2023-02-02T11:18:15.893Z,7.20
2023-02-02T11:20:46.582Z,7.20
2023-02-02T11:23:20.207Z,7.20
2023-02-02T11:25:58.953Z,7.20
2023-02-02T11:28:30.292Z,7.20
2023-02-02T11:30:59.216Z,7.20
2023-02-02T11:33:30.701Z,7.30
2023-02-02T11:36:00.731Z,7.40
2023-02-02T11:38:29.563Z,7.40
2023-02-02T11:41:02.363Z,7.40
2023-02-02T11:43:32.642Z,7.40
2023-02-02T11:46:04.325Z,7.40
2023-02-02T11:48:37.110Z,7.40
2023-02-02T11:51:07.021Z,7.50
2023-02-02T11:53:37.833Z,7.50
2023-02-02T11:56:10.669Z,7.60
2023-02-02T11:58:46.156Z,7.60
2023-02-02T12:01:33.130Z,7.60
2023-02-02T12:04:04.528Z,7.70
2023-02-02T12:06:36.777Z,7.70
2023-02-02T12:09:15.432Z,7.60
2023-02-02T12:11:55.284Z,7.70
2023-02-02T12:14:35.547Z,7.70
2023-02-02T12:17:16.243Z,7.70
2023-02-02T12:20:03.917Z,7.70
2023-02-02T12:22:50.552Z,7.60
2023-02-02T12:25:38.877Z,7.70
2023-02-02T12:28:19.508Z,7.80
2023-02-02T12:30:57.653Z,7.70
2023-02-02T12:33:34.602Z,7.70
2023-02-02T12:36:24.367Z,7.70
2023-02-02T12:39:07.914Z,7.70
2023-02-02T12:41:48.880Z,7.70
2023-02-02T12:44:24.689Z,7.60
2023-02-02T12:47:09.649Z,7.60
2023-02-02T12:50:01.173Z,7.60
2023-02-02T12:52:49.815Z,7.70
2023-02-02T12:55:26.443Z,7.70
2023-02-02T12:58:03.268Z,7.80
2023-02-02T13:00:54.526Z,7.80
2023-02-02T13:03:36.276Z,7.80
2023-02-02T13:06:24.531Z,7.70
2023-02-02T13:09:01.902Z,7.70
2023-02-02T13:11:39.940Z,7.70
2023-02-02T13:14:13.926Z,7.90
2023-02-02T13:16:48.528Z,7.90
2023-02-02T13:19:26.659Z,8.00
2023-02-02T13:21:59.249Z,7.90
2023-02-02T13:24:38.702Z,7.80
2023-02-02T13:27:11.953Z,7.70
2023-02-02T13:29:47.986Z,7.80
2023-02-02T13:32:24.429Z,7.90
2023-02-02T13:34:56.619Z,7.90
2023-02-02T13:37:30.392Z,7.80
2023-02-02T13:40:02.813Z,7.80
2023-02-02T13:42:42.030Z,7.80
2023-02-02T13:45:34.238Z,7.80
2023-02-02T13:48:21.228Z,7.80
2023-02-02T13:51:07.593Z,7.80
2023-02-02T13:53:50.823Z,7.80
2023-02-02T13:56:39.767Z,7.90
2023-02-02T13:59:26.018Z,7.90
2023-02-02T14:01:55.005Z,7.90
2023-02-02T14:04:26.001Z,7.80
2023-02-02T14:06:58.224Z,7.70
2023-02-02T14:09:29.241Z,7.50
2023-02-02T14:12:01.944Z,7.60
2023-02-02T14:14:35.255Z,7.60
2023-02-02T14:17:05.850Z,7.60
2023-02-02T14:19:55.557Z,7.70
2023-02-02T14:22:44.601Z,7.80
2023-02-02T14:25:47.505Z,7.90
2023-02-02T14:28:50.814Z,7.90
2023-02-02T14:31:29.704Z,8.00
2023-02-02T14:34:27.852Z,8.00
2023-02-02T14:37:11.165Z,8.00
2023-02-02T14:39:50.541Z,8.00
2023-02-02T14:42:48.475Z,8.10
2023-02-02T14:45:27.165Z,8.10
2023-02-02T14:47:58.506Z,8.10
2023-02-02T14:50:37.052Z,8.10
2023-02-02T14:53:08.382Z,8.10
2023-02-02T14:56:00.553Z,8.00
2023-02-02T14:58:35.136Z,7.90
2023-02-02T15:01:11.068Z,8.00
2023-02-02T15:03:49.463Z,8.00
2023-02-02T15:06:30.379Z,8.10
2023-02-02T15:09:36.588Z,8.00
2023-02-02T15:12:35.144Z,8.00
2023-02-02T15:15:18.389Z,8.10
2023-02-02T15:17:55.994Z,8.10
2023-02-02T15:20:30.908Z,8.20
2023-02-02T15:23:03.501Z,8.20
2023-02-02T15:25:36.775Z,8.20
2023-02-02T15:28:13.287Z,8.30
2023-02-02T15:30:45.990Z,8.20
2023-02-02T15:33:25.484Z,8.20
2023-02-02T15:35:55.100Z,8.30
2023-02-02T15:38:25.205Z,8.30
2023-02-02T15:40:56.770Z,8.30
2023-02-02T15:43:28.082Z,8.40
2023-02-02T15:46:02.483Z,8.40
2023-02-02T15:48:34.653Z,8.40
2023-02-02T15:51:06.432Z,8.40
2023-02-02T15:53:46.567Z,8.30
2023-02-02T15:56:27.463Z,8.40
2023-02-02T15:58:57.520Z,8.50
2023-02-02T16:01:28.090Z,8.50
2023-02-02T16:04:08.240Z,8.50
2023-02-02T16:06:36.892Z,8.30
2023-02-02T16:09:05.558Z,8.30
2023-02-02T16:11:34.265Z,8.30
2023-02-02T16:14:04.136Z,8.10
2023-02-02T16:16:34.698Z,8.10
2023-02-02T16:19:07.465Z,8.20
2023-02-02T16:21:38.647Z,8.30
2023-02-02T16:24:13.259Z,8.30
2023-02-02T16:26:42.351Z,8.30
2023-02-02T16:29:17.143Z,8.30
2023-02-02T16:31:46.609Z,8.20
2023-02-02T16:34:40.141Z,8.10
2023-02-02T16:37:13.817Z,8.10
2023-02-02T16:39:42.177Z,8.10
2023-02-02T16:42:11.625Z,8.20
2023-02-02T16:44:42.948Z,8.20
2023-02-02T16:47:37.706Z,8.30
2023-02-02T16:50:28.191Z,8.40
2023-02-02T16:53:00.404Z,8.20
2023-02-02T16:55:43.652Z,8.30
2023-02-02T16:58:20.881Z,8.40
2023-02-02T17:01:12.311Z,8.30
2023-02-02T17:03:48.497Z,8.20
2023-02-02T17:06:18.227Z,8.20
2023-02-02T17:08:46.298Z,8.20
2023-02-02T17:11:24.758Z,8.20
2023-02-02T17:13:53.625Z,8.20
2023-02-02T17:16:23.166Z,8.10
2023-02-02T17:18:52.535Z,8.10
2023-02-02T17:21:25.426Z,8.10
2023-02-02T17:23:54.617Z,8.10
2023-02-02T17:26:22.768Z,8.00
2023-02-02T17:28:55.880Z,8.10
2023-02-02T17:31:24.072Z,8.10
2023-02-02T17:33:52.147Z,8.10
2023-02-02T17:36:21.599Z,8.10
2023-02-02T17:38:49.684Z,8.10
2023-02-02T17:41:17.763Z,8.20
2023-02-02T17:43:45.958Z,8.10
2023-02-02T17:46:14.078Z,8.20
2023-02-02T17:48:42.675Z,8.20
2023-02-02T17:51:15.958Z,8.20
2023-02-02T17:53:46.131Z,8.10
2023-02-02T17:56:14.185Z,8.10
2023-02-02T17:58:42.306Z,8.10
2023-02-02T18:01:11.904Z,8.00
2023-02-02T18:03:41.566Z,8.00
2023-02-02T18:06:11.571Z,8.10
2023-02-02T18:08:40.773Z,8.10
2023-02-02T18:11:13.578Z,8.20
2023-02-02T18:13:43.513Z,8.10
2023-02-02T18:16:12.659Z,8.10
2023-02-02T18:18:40.762Z,8.10
2023-02-02T18:21:10.686Z,8.20
2023-02-02T18:23:39.279Z,8.20
2023-02-02T18:26:13.367Z,8.20
2023-02-02T18:28:41.539Z,8.30
2023-02-02T18:31:11.320Z,8.30
2023-02-02T18:33:41.523Z,8.20
2023-02-02T18:36:12.421Z,8.20
2023-02-02T18:38:41.613Z,8.20
2023-02-02T18:41:09.789Z,8.20
2023-02-02T18:43:39.167Z,8.20
2023-02-02T18:46:10.307Z,8.10
2023-02-02T18:48:38.606Z,8.10
2023-02-02T18:51:07.451Z,8.10
2023-02-02T18:53:36.184Z,8.00
2023-02-02T18:56:06.385Z,8.00
2023-02-02T18:58:34.924Z,8.10
2023-02-02T19:01:09.496Z,8.10
2023-02-02T19:03:38.034Z,8.10
2023-02-02T19:06:25.045Z,8.10
2023-02-02T19:08:53.190Z,8.20
2023-02-02T19:11:22.750Z,8.20
2023-02-02T19:13:50.946Z,8.10
2023-02-02T19:16:25.714Z,8.00
2023-02-02T19:18:57.346Z,8.00
2023-02-02T19:21:26.521Z,8.10
2023-02-02T19:23:54.586Z,8.10
2023-02-02T19:26:24.704Z,8.20
2023-02-02T19:28:53.251Z,8.20
2023-02-02T19:31:22.762Z,8.10
2023-02-02T19:33:51.950Z,8.10
2023-02-02T19:36:22.498Z,8.10
2023-02-02T19:38:53.414Z,8.10
2023-02-02T19:41:24.593Z,8.20
2023-02-02T19:43:58.359Z,8.20
2023-02-02T19:46:28.929Z,8.20
2023-02-02T19:49:08.401Z,8.30
2023-02-02T19:51:42.904Z,8.30
2023-02-02T19:54:27.920Z,8.20
2023-02-02T19:56:58.461Z,8.30
2023-02-02T19:59:30.871Z,8.30
2023-02-02T20:02:20.027Z,8.30
2023-02-02T20:04:49.173Z,8.40
2023-02-02T20:07:17.212Z,8.40
2023-02-02T20:09:45.399Z,8.40
2023-02-02T20:12:22.282Z,8.40
2023-02-02T20:14:50.318Z,8.40
2023-02-02T20:17:28.958Z,8.30
2023-02-02T20:19:57.016Z,8.30
2023-02-02T20:22:29.342Z,8.30
2023-02-02T20:24:58.674Z,8.30
2023-02-02T20:27:29.054Z,8.30
2023-02-02T20:30:02.096Z,8.30
2023-02-02T20:32:40.769Z,8.30
2023-02-02T20:35:23.922Z,8.30
2023-02-02T20:37:52.222Z,8.40
2023-02-02T20:40:25.979Z,8.40
2023-02-02T20:42:54.540Z,8.40
2023-02-02T20:45:23.426Z,8.40
2023-02-02T20:47:53.161Z,8.40
2023-02-02T20:50:23.071Z,8.50
2023-02-02T20:52:53.538Z,8.50
2023-02-02T20:55:21.727Z,8.50
2023-02-02T20:57:49.786Z,8.60
2023-02-02T21:00:21.373Z,8.60
2023-02-02T21:02:49.537Z,8.60
2023-02-02T21:05:19.418Z,8.60
2023-02-02T21:07:47.885Z,8.60
2023-02-02T21:10:16.219Z,8.60
2023-02-02T21:12:44.243Z,8.50
2023-02-02T21:15:12.494Z,8.60
2023-02-02T21:17:41.354Z,8.60
2023-02-02T21:20:11.746Z,8.60
2023-02-02T21:22:41.320Z,8.60
2023-02-02T21:25:10.051Z,8.70
2023-02-02T21:27:41.174Z,8.70
2023-02-02T21:30:10.931Z,8.70
2023-02-02T21:32:39.040Z,8.70
2023-02-02T21:35:07.543Z,8.60
2023-02-02T21:37:37.688Z,8.60
2023-02-02T21:40:14.648Z,8.60
2023-02-02T21:42:48.268Z,8.60
2023-02-02T21:45:35.170Z,8.60
2023-02-02T21:48:07.256Z,8.60
2023-02-02T21:50:36.932Z,8.60
2023-02-02T21:53:19.857Z,8.50
2023-02-02T21:55:53.208Z,8.50
2023-02-02T21:58:24.977Z,8.50
2023-02-02T22:00:54.081Z,8.50
2023-02-02T22:03:35.462Z,8.60
2023-02-02T22:06:19.709Z,8.50
2023-02-02T22:08:48.591Z,8.40
2023-02-02T22:11:25.260Z,8.50
2023-02-02T22:13:55.644Z,8.50
2023-02-02T22:16:23.876Z,8.50
2023-02-02T22:18:52.007Z,8.50
2023-02-02T22:21:21.172Z,8.50
2023-02-02T22:23:49.380Z,8.60
2023-02-02T22:26:30.205Z,8.60
2023-02-02T22:28:58.353Z,8.70
2023-02-02T22:31:26.641Z,8.60
2023-02-02T22:33:54.703Z,8.70
2023-02-02T22:36:22.752Z,8.70
2023-02-02T22:38:50.964Z,8.70
2023-02-02T22:41:19.235Z,8.70
2023-02-02T22:43:49.095Z,8.60
2023-02-02T22:46:17.120Z,8.60
2023-02-02T22:48:45.248Z,8.60
2023-02-02T22:51:13.324Z,8.70
2023-02-02T22:53:41.444Z,8.80
2023-02-02T22:56:09.644Z,8.70
2023-02-02T22:58:37.657Z,8.80
2023-02-02T23:01:07.211Z,8.80
2023-02-02T23:03:35.352Z,8.80
2023-02-02T23:06:03.353Z,8.80
2023-02-02T23:08:31.387Z,8.80
2023-02-02T23:10:59.587Z,8.80
2023-02-02T23:13:27.718Z,8.70
2023-02-02T23:15:56.737Z,8.70
2023-02-02T23:18:26.210Z,8.70
2023-02-02T23:20:54.220Z,8.80
2023-02-02T23:23:23.073Z,8.70
2023-02-02T23:25:51.165Z,8.70
2023-02-02T23:28:19.379Z,8.70
2023-02-02T23:30:47.529Z,8.70
2023-02-02T23:33:15.685Z,8.70
2023-02-02T23:35:45.125Z,8.80
2023-02-02T23:38:13.491Z,8.90
2023-02-02T23:40:41.562Z,8.90
2023-02-02T23:43:09.600Z,9.00
2023-02-02T23:45:38.882Z,9.00
2023-02-02T23:48:07.685Z,8.80
2023-02-02T23:50:38.480Z,8.80
2023-02-02T23:53:08.735Z,8.80
2023-02-02T23:55:37.127Z,8.80
2023-02-02T23:58:05.992Z,8.80
